sensor_id;sensor_type;location;lat;lon;timestamp;P1;durP1;ratioP1;P2;durP2;ratioP2
72601;SDS011;60644;55.858;37.390;2024-03-17T00:01:55;19.47;;;4.40;;
72601;SDS011;60644;55.858;37.390;2024-03-17T00:04:20;22.92;;;4.45;;
72601;SDS011;60644;55.858;37.390;2024-03-17T00:06:47;17.63;;;3.83;;
72601;SDS011;60644;55.858;37.390;2024-03-17T00:09:12;21.05;;;3.90;;
72601;SDS011;60644;55.858;37.390;2024-03-17T00:11:38;20.80;;;4.05;;
72601;SDS011;60644;55.858;37.390;2024-03-17T00:14:05;14.83;;;4.00;;
72601;SDS011;60644;55.858;37.390;2024-03-17T00:16:30;19.75;;;4.82;;
72601;SDS011;60644;55.858;37.390;2024-03-17T00:18:56;19.15;;;3.75;;
72601;SDS011;60644;55.858;37.390;2024-03-17T00:21:22;17.55;;;3.55;;
72601;SDS011;60644;55.858;37.390;2024-03-17T00:23:48;17.40;;;3.72;;
72601;SDS011;60644;55.858;37.390;2024-03-17T00:26:17;21.67;;;4.23;;
72601;SDS011;60644;55.858;37.390;2024-03-17T00:28:45;16.52;;;4.10;;
72601;SDS011;60644;55.858;37.390;2024-03-17T00:31:14;24.10;;;3.88;;
72601;SDS011;60644;55.858;37.390;2024-03-17T00:33:40;18.48;;;4.13;;
72601;SDS011;60644;55.858;37.390;2024-03-17T00:36:06;14.98;;;4.53;;
72601;SDS011;60644;55.858;37.390;2024-03-17T00:38:32;26.43;;;4.57;;
72601;SDS011;60644;55.858;37.390;2024-03-17T00:40:58;21.27;;;3.72;;
72601;SDS011;60644;55.858;37.390;2024-03-17T00:43:24;24.27;;;4.63;;
72601;SDS011;60644;55.858;37.390;2024-03-17T00:45:53;17.53;;;3.87;;
72601;SDS011;60644;55.858;37.390;2024-03-17T00:48:19;17.52;;;3.75;;
72601;SDS011;60644;55.858;37.390;2024-03-17T00:50:44;18.55;;;3.70;;
72601;SDS011;60644;55.858;37.390;2024-03-17T00:53:10;15.35;;;3.60;;
72601;SDS011;60644;55.858;37.390;2024-03-17T00:55:36;23.88;;;4.35;;
72601;SDS011;60644;55.858;37.390;2024-03-17T00:58:02;20.10;;;4.10;;
72601;SDS011;60644;55.858;37.390;2024-03-17T01:00:28;19.67;;;4.50;;
72601;SDS011;60644;55.858;37.390;2024-03-17T01:02:54;20.10;;;4.82;;
72601;SDS011;60644;55.858;37.390;2024-03-17T01:05:20;22.97;;;4.57;;
72601;SDS011;60644;55.858;37.390;2024-03-17T01:07:45;13.60;;;3.77;;
72601;SDS011;60644;55.858;37.390;2024-03-17T01:10:13;21.60;;;4.70;;
72601;SDS011;60644;55.858;37.390;2024-03-17T01:12:38;17.73;;;3.80;;
72601;SDS011;60644;55.858;37.390;2024-03-17T01:15:05;21.40;;;4.13;;
72601;SDS011;60644;55.858;37.390;2024-03-17T01:17:31;22.55;;;4.28;;
72601;SDS011;60644;55.858;37.390;2024-03-17T01:19:56;22.20;;;4.00;;
72601;SDS011;60644;55.858;37.390;2024-03-17T01:22:22;16.88;;;5.13;;
72601;SDS011;60644;55.858;37.390;2024-03-17T01:24:48;20.50;;;4.20;;
72601;SDS011;60644;55.858;37.390;2024-03-17T01:27:13;22.37;;;4.17;;
72601;SDS011;60644;55.858;37.390;2024-03-17T01:29:44;19.65;;;4.00;;
72601;SDS011;60644;55.858;37.390;2024-03-17T01:32:10;20.42;;;4.15;;
72601;SDS011;60644;55.858;37.390;2024-03-17T01:34:39;18.42;;;4.70;;
72601;SDS011;60644;55.858;37.390;2024-03-17T01:37:04;25.10;;;4.57;;
72601;SDS011;60644;55.858;37.390;2024-03-17T01:39:30;19.45;;;4.03;;
72601;SDS011;60644;55.858;37.390;2024-03-17T01:41:58;19.08;;;3.85;;
72601;SDS011;60644;55.858;37.390;2024-03-17T01:44:27;23.10;;;5.47;;
72601;SDS011;60644;55.858;37.390;2024-03-17T01:46:53;16.90;;;3.72;;
72601;SDS011;60644;55.858;37.390;2024-03-17T01:49:20;17.45;;;4.63;;
72601;SDS011;60644;55.858;37.390;2024-03-17T01:51:46;20.58;;;4.45;;
72601;SDS011;60644;55.858;37.390;2024-03-17T01:54:12;17.07;;;3.87;;
72601;SDS011;60644;55.858;37.390;2024-03-17T01:56:38;23.38;;;4.88;;
72601;SDS011;60644;55.858;37.390;2024-03-17T01:59:04;22.10;;;4.88;;
72601;SDS011;60644;55.858;37.390;2024-03-17T02:01:31;15.63;;;3.90;;
72601;SDS011;60644;55.858;37.390;2024-03-17T02:03:57;16.35;;;4.25;;
72601;SDS011;60644;55.858;37.390;2024-03-17T02:06:23;26.67;;;5.23;;
72601;SDS011;60644;55.858;37.390;2024-03-17T02:08:49;23.35;;;4.95;;
72601;SDS011;60644;55.858;37.390;2024-03-17T02:11:37;19.88;;;4.28;;
72601;SDS011;60644;55.858;37.390;2024-03-17T02:14:02;16.73;;;4.38;;
72601;SDS011;60644;55.858;37.390;2024-03-17T02:16:28;20.38;;;5.03;;
72601;SDS011;60644;55.858;37.390;2024-03-17T02:18:54;23.07;;;6.20;;
72601;SDS011;60644;55.858;37.390;2024-03-17T02:21:21;17.30;;;3.80;;
72601;SDS011;60644;55.858;37.390;2024-03-17T02:23:48;19.75;;;3.88;;
72601;SDS011;60644;55.858;37.390;2024-03-17T02:26:14;16.07;;;4.63;;
72601;SDS011;60644;55.858;37.390;2024-03-17T02:28:43;18.83;;;4.82;;
72601;SDS011;60644;55.858;37.390;2024-03-17T02:31:10;22.90;;;5.35;;
72601;SDS011;60644;55.858;37.390;2024-03-17T02:33:36;14.23;;;4.40;;
72601;SDS011;60644;55.858;37.390;2024-03-17T02:36:02;23.95;;;4.50;;
72601;SDS011;60644;55.858;37.390;2024-03-17T02:38:29;12.73;;;3.83;;
72601;SDS011;60644;55.858;37.390;2024-03-17T02:41:13;19.85;;;4.93;;
72601;SDS011;60644;55.858;37.390;2024-03-17T02:43:39;17.27;;;4.50;;
72601;SDS011;60644;55.858;37.390;2024-03-17T02:46:05;20.40;;;4.85;;
72601;SDS011;60644;55.858;37.390;2024-03-17T02:48:31;25.47;;;6.13;;
72601;SDS011;60644;55.858;37.390;2024-03-17T02:50:57;21.15;;;5.43;;
72601;SDS011;60644;55.858;37.390;2024-03-17T02:53:22;19.38;;;4.38;;
72601;SDS011;60644;55.858;37.390;2024-03-17T02:55:48;21.55;;;4.70;;
72601;SDS011;60644;55.858;37.390;2024-03-17T02:58:14;19.07;;;5.50;;
72601;SDS011;60644;55.858;37.390;2024-03-17T03:00:39;23.92;;;5.43;;
72601;SDS011;60644;55.858;37.390;2024-03-17T03:03:05;23.07;;;6.03;;
72601;SDS011;60644;55.858;37.390;2024-03-17T03:05:31;23.23;;;5.00;;
72601;SDS011;60644;55.858;37.390;2024-03-17T03:07:56;19.43;;;5.67;;
72601;SDS011;60644;55.858;37.390;2024-03-17T03:10:23;19.25;;;5.10;;
72601;SDS011;60644;55.858;37.390;2024-03-17T03:12:49;26.20;;;5.68;;
72601;SDS011;60644;55.858;37.390;2024-03-17T03:15:14;22.98;;;5.35;;
72601;SDS011;60644;55.858;37.390;2024-03-17T03:17:40;18.52;;;5.28;;
72601;SDS011;60644;55.858;37.390;2024-03-17T03:20:06;21.37;;;5.80;;
72601;SDS011;60644;55.858;37.390;2024-03-17T03:22:31;20.48;;;5.38;;
72601;SDS011;60644;55.858;37.390;2024-03-17T03:24:57;20.60;;;5.13;;
72601;SDS011;60644;55.858;37.390;2024-03-17T03:27:23;20.48;;;6.05;;
72601;SDS011;60644;55.858;37.390;2024-03-17T03:29:50;18.47;;;6.10;;
72601;SDS011;60644;55.858;37.390;2024-03-17T03:32:15;31.35;;;8.20;;
72601;SDS011;60644;55.858;37.390;2024-03-17T03:34:43;16.83;;;5.53;;
72601;SDS011;60644;55.858;37.390;2024-03-17T03:37:08;25.37;;;6.83;;
72601;SDS011;60644;55.858;37.390;2024-03-17T03:39:36;22.75;;;5.80;;
72601;SDS011;60644;55.858;37.390;2024-03-17T03:42:02;24.70;;;6.23;;
72601;SDS011;60644;55.858;37.390;2024-03-17T03:44:27;20.98;;;5.95;;
72601;SDS011;60644;55.858;37.390;2024-03-17T03:46:53;23.77;;;6.70;;
72601;SDS011;60644;55.858;37.390;2024-03-17T03:49:26;15.87;;;6.13;;
72601;SDS011;60644;55.858;37.390;2024-03-17T03:51:52;17.10;;;6.78;;
72601;SDS011;60644;55.858;37.390;2024-03-17T03:54:18;22.52;;;6.95;;
72601;SDS011;60644;55.858;37.390;2024-03-17T03:56:43;24.53;;;7.00;;
72601;SDS011;60644;55.858;37.390;2024-03-17T03:59:09;20.67;;;7.40;;
72601;SDS011;60644;55.858;37.390;2024-03-17T04:01:35;20.17;;;6.07;;
72601;SDS011;60644;55.858;37.390;2024-03-17T04:04:01;20.38;;;6.40;;
72601;SDS011;60644;55.858;37.390;2024-03-17T04:06:28;22.40;;;6.40;;
72601;SDS011;60644;55.858;37.390;2024-03-17T04:08:54;23.80;;;7.00;;
72601;SDS011;60644;55.858;37.390;2024-03-17T04:11:19;26.50;;;8.17;;
72601;SDS011;60644;55.858;37.390;2024-03-17T04:13:45;20.38;;;6.38;;
72601;SDS011;60644;55.858;37.390;2024-03-17T04:16:12;24.57;;;7.47;;
72601;SDS011;60644;55.858;37.390;2024-03-17T04:18:38;25.52;;;7.10;;
72601;SDS011;60644;55.858;37.390;2024-03-17T04:21:06;21.67;;;7.40;;
72601;SDS011;60644;55.858;37.390;2024-03-17T04:23:32;21.90;;;7.53;;
72601;SDS011;60644;55.858;37.390;2024-03-17T04:25:58;23.00;;;7.05;;
72601;SDS011;60644;55.858;37.390;2024-03-17T04:28:25;25.48;;;7.75;;
72601;SDS011;60644;55.858;37.390;2024-03-17T04:30:50;23.95;;;7.65;;
72601;SDS011;60644;55.858;37.390;2024-03-17T04:33:16;24.70;;;7.30;;
72601;SDS011;60644;55.858;37.390;2024-03-17T04:35:44;26.13;;;7.68;;
72601;SDS011;60644;55.858;37.390;2024-03-17T04:38:10;20.10;;;7.20;;
72601;SDS011;60644;55.858;37.390;2024-03-17T04:40:42;25.10;;;6.97;;
72601;SDS011;60644;55.858;37.390;2024-03-17T04:43:08;26.17;;;7.93;;
72601;SDS011;60644;55.858;37.390;2024-03-17T04:45:34;21.55;;;6.32;;
72601;SDS011;60644;55.858;37.390;2024-03-17T04:47:59;26.98;;;7.28;;
72601;SDS011;60644;55.858;37.390;2024-03-17T04:50:25;22.50;;;7.33;;
72601;SDS011;60644;55.858;37.390;2024-03-17T04:52:52;25.67;;;7.97;;
72601;SDS011;60644;55.858;37.390;2024-03-17T04:55:17;27.50;;;7.83;;
72601;SDS011;60644;55.858;37.390;2024-03-17T04:57:46;20.38;;;6.15;;
72601;SDS011;60644;55.858;37.390;2024-03-17T05:00:12;22.70;;;6.43;;
72601;SDS011;60644;55.858;37.390;2024-03-17T05:02:40;24.83;;;6.10;;
72601;SDS011;60644;55.858;37.390;2024-03-17T05:05:05;19.52;;;6.75;;
72601;SDS011;60644;55.858;37.390;2024-03-17T05:07:34;24.95;;;6.95;;
72601;SDS011;60644;55.858;37.390;2024-03-17T05:10:00;25.83;;;6.55;;
72601;SDS011;60644;55.858;37.390;2024-03-17T05:12:25;27.93;;;7.37;;
72601;SDS011;60644;55.858;37.390;2024-03-17T05:14:51;25.85;;;6.70;;
72601;SDS011;60644;55.858;37.390;2024-03-17T05:17:17;27.23;;;7.83;;
72601;SDS011;60644;55.858;37.390;2024-03-17T05:19:42;25.98;;;7.65;;
72601;SDS011;60644;55.858;37.390;2024-03-17T05:22:08;20.07;;;6.43;;
72601;SDS011;60644;55.858;37.390;2024-03-17T05:24:34;22.60;;;7.13;;
72601;SDS011;60644;55.858;37.390;2024-03-17T05:26:59;25.70;;;6.82;;
72601;SDS011;60644;55.858;37.390;2024-03-17T05:29:25;23.47;;;7.07;;
72601;SDS011;60644;55.858;37.390;2024-03-17T05:31:51;22.17;;;8.23;;
72601;SDS011;60644;55.858;37.390;2024-03-17T05:34:17;25.55;;;8.60;;
72601;SDS011;60644;55.858;37.390;2024-03-17T05:36:43;25.00;;;6.83;;
72601;SDS011;60644;55.858;37.390;2024-03-17T05:39:08;25.07;;;6.80;;
72601;SDS011;60644;55.858;37.390;2024-03-17T05:41:34;23.85;;;8.05;;
72601;SDS011;60644;55.858;37.390;2024-03-17T05:44:00;32.27;;;8.27;;
72601;SDS011;60644;55.858;37.390;2024-03-17T05:46:29;22.02;;;6.97;;
72601;SDS011;60644;55.858;37.390;2024-03-17T05:48:55;27.27;;;7.50;;
72601;SDS011;60644;55.858;37.390;2024-03-17T05:51:20;27.80;;;9.27;;
72601;SDS011;60644;55.858;37.390;2024-03-17T05:53:46;26.50;;;7.70;;
72601;SDS011;60644;55.858;37.390;2024-03-17T05:56:12;23.65;;;7.70;;
72601;SDS011;60644;55.858;37.390;2024-03-17T05:58:38;28.03;;;8.43;;
72601;SDS011;60644;55.858;37.390;2024-03-17T06:01:05;25.40;;;6.97;;
72601;SDS011;60644;55.858;37.390;2024-03-17T06:03:33;25.30;;;8.90;;
72601;SDS011;60644;55.858;37.390;2024-03-17T06:06:01;26.02;;;8.10;;
72601;SDS011;60644;55.858;37.390;2024-03-17T06:08:27;28.53;;;9.00;;
72601;SDS011;60644;55.858;37.390;2024-03-17T06:10:53;28.25;;;9.57;;
72601;SDS011;60644;55.858;37.390;2024-03-17T06:13:19;25.17;;;7.47;;
72601;SDS011;60644;55.858;37.390;2024-03-17T06:15:44;28.10;;;7.72;;
72601;SDS011;60644;55.858;37.390;2024-03-17T06:18:12;28.58;;;7.28;;
72601;SDS011;60644;55.858;37.390;2024-03-17T06:20:40;25.13;;;8.67;;
72601;SDS011;60644;55.858;37.390;2024-03-17T06:23:10;28.35;;;7.93;;
72601;SDS011;60644;55.858;37.390;2024-03-17T06:25:42;23.95;;;7.80;;
72601;SDS011;60644;55.858;37.390;2024-03-17T06:28:09;21.00;;;7.78;;
72601;SDS011;60644;55.858;37.390;2024-03-17T06:30:36;22.50;;;8.35;;
72601;SDS011;60644;55.858;37.390;2024-03-17T06:33:02;34.00;;;8.80;;
72601;SDS011;60644;55.858;37.390;2024-03-17T06:35:28;24.55;;;8.32;;
72601;SDS011;60644;55.858;37.390;2024-03-17T06:37:58;22.92;;;8.07;;
72601;SDS011;60644;55.858;37.390;2024-03-17T06:40:24;27.35;;;8.07;;
72601;SDS011;60644;55.858;37.390;2024-03-17T06:42:50;26.53;;;7.77;;
72601;SDS011;60644;55.858;37.390;2024-03-17T06:45:17;24.13;;;7.95;;
72601;SDS011;60644;55.858;37.390;2024-03-17T06:47:46;26.52;;;8.23;;
72601;SDS011;60644;55.858;37.390;2024-03-17T06:50:15;23.15;;;7.85;;
72601;SDS011;60644;55.858;37.390;2024-03-17T06:52:41;25.43;;;8.37;;
72601;SDS011;60644;55.858;37.390;2024-03-17T06:55:06;27.52;;;8.45;;
72601;SDS011;60644;55.858;37.390;2024-03-17T06:57:32;27.67;;;8.53;;
72601;SDS011;60644;55.858;37.390;2024-03-17T06:59:59;26.95;;;8.70;;
72601;SDS011;60644;55.858;37.390;2024-03-17T07:02:25;26.55;;;8.73;;
72601;SDS011;60644;55.858;37.390;2024-03-17T07:04:51;30.95;;;8.93;;
72601;SDS011;60644;55.858;37.390;2024-03-17T07:07:16;22.00;;;6.82;;
72601;SDS011;60644;55.858;37.390;2024-03-17T07:09:42;23.60;;;8.18;;
72601;SDS011;60644;55.858;37.390;2024-03-17T07:12:08;28.53;;;7.80;;
72601;SDS011;60644;55.858;37.390;2024-03-17T07:14:34;35.13;;;8.88;;
72601;SDS011;60644;55.858;37.390;2024-03-17T07:17:00;28.38;;;8.90;;
72601;SDS011;60644;55.858;37.390;2024-03-17T07:19:26;21.83;;;7.95;;
72601;SDS011;60644;55.858;37.390;2024-03-17T07:21:51;30.80;;;9.33;;
72601;SDS011;60644;55.858;37.390;2024-03-17T07:24:17;27.42;;;8.30;;
72601;SDS011;60644;55.858;37.390;2024-03-17T07:26:47;32.92;;;8.52;;
72601;SDS011;60644;55.858;37.390;2024-03-17T07:29:13;28.67;;;9.13;;
72601;SDS011;60644;55.858;37.390;2024-03-17T07:31:38;26.55;;;8.98;;
72601;SDS011;60644;55.858;37.390;2024-03-17T07:34:04;24.43;;;7.93;;
72601;SDS011;60644;55.858;37.390;2024-03-17T07:36:29;32.25;;;8.05;;
72601;SDS011;60644;55.858;37.390;2024-03-17T07:38:55;26.53;;;7.80;;
72601;SDS011;60644;55.858;37.390;2024-03-17T07:41:21;27.65;;;8.77;;
72601;SDS011;60644;55.858;37.390;2024-03-17T07:43:49;27.08;;;9.00;;
72601;SDS011;60644;55.858;37.390;2024-03-17T07:46:15;25.60;;;8.50;;
72601;SDS011;60644;55.858;37.390;2024-03-17T07:48:42;26.70;;;8.25;;
72601;SDS011;60644;55.858;37.390;2024-03-17T07:51:11;24.98;;;8.50;;
72601;SDS011;60644;55.858;37.390;2024-03-17T07:53:37;28.92;;;8.80;;
72601;SDS011;60644;55.858;37.390;2024-03-17T07:56:04;22.38;;;7.95;;
72601;SDS011;60644;55.858;37.390;2024-03-17T07:58:31;31.60;;;9.03;;
72601;SDS011;60644;55.858;37.390;2024-03-17T08:01:00;31.27;;;8.20;;
72601;SDS011;60644;55.858;37.390;2024-03-17T08:03:26;24.17;;;7.50;;
72601;SDS011;60644;55.858;37.390;2024-03-17T08:05:52;26.73;;;8.15;;
72601;SDS011;60644;55.858;37.390;2024-03-17T08:08:18;25.80;;;8.00;;
72601;SDS011;60644;55.858;37.390;2024-03-17T08:10:44;30.45;;;9.43;;
72601;SDS011;60644;55.858;37.390;2024-03-17T08:13:11;26.33;;;8.95;;
72601;SDS011;60644;55.858;37.390;2024-03-17T08:15:41;29.05;;;9.32;;
72601;SDS011;60644;55.858;37.390;2024-03-17T08:18:07;27.58;;;8.13;;
72601;SDS011;60644;55.858;37.390;2024-03-17T08:20:39;23.83;;;8.30;;
72601;SDS011;60644;55.858;37.390;2024-03-17T08:23:06;34.63;;;8.50;;
72601;SDS011;60644;55.858;37.390;2024-03-17T08:25:32;25.35;;;8.30;;
72601;SDS011;60644;55.858;37.390;2024-03-17T08:27:59;23.03;;;8.73;;
72601;SDS011;60644;55.858;37.390;2024-03-17T08:30:24;26.35;;;7.70;;
72601;SDS011;60644;55.858;37.390;2024-03-17T08:32:50;25.05;;;8.30;;
72601;SDS011;60644;55.858;37.390;2024-03-17T08:35:16;29.92;;;9.43;;
72601;SDS011;60644;55.858;37.390;2024-03-17T08:37:41;27.53;;;8.27;;
72601;SDS011;60644;55.858;37.390;2024-03-17T08:40:07;23.13;;;9.10;;
72601;SDS011;60644;55.858;37.390;2024-03-17T08:42:33;28.03;;;9.57;;
72601;SDS011;60644;55.858;37.390;2024-03-17T08:44:59;29.08;;;8.80;;
72601;SDS011;60644;55.858;37.390;2024-03-17T08:47:25;23.75;;;9.07;;
72601;SDS011;60644;55.858;37.390;2024-03-17T08:49:50;27.23;;;8.40;;
72601;SDS011;60644;55.858;37.390;2024-03-17T08:52:17;30.40;;;8.82;;
72601;SDS011;60644;55.858;37.390;2024-03-17T08:54:45;29.53;;;8.70;;
72601;SDS011;60644;55.858;37.390;2024-03-17T08:57:11;27.40;;;8.77;;
72601;SDS011;60644;55.858;37.390;2024-03-17T08:59:37;20.73;;;7.20;;
72601;SDS011;60644;55.858;37.390;2024-03-17T09:02:02;24.42;;;8.35;;
72601;SDS011;60644;55.858;37.390;2024-03-17T09:04:28;24.65;;;7.97;;
72601;SDS011;60644;55.858;37.390;2024-03-17T09:06:54;29.00;;;8.57;;
72601;SDS011;60644;55.858;37.390;2024-03-17T09:09:22;26.92;;;7.88;;
72601;SDS011;60644;55.858;37.390;2024-03-17T09:11:48;26.50;;;8.55;;
72601;SDS011;60644;55.858;37.390;2024-03-17T09:14:13;25.33;;;8.23;;
72601;SDS011;60644;55.858;37.390;2024-03-17T09:16:39;28.58;;;8.50;;
72601;SDS011;60644;55.858;37.390;2024-03-17T09:19:04;29.70;;;8.60;;
72601;SDS011;60644;55.858;37.390;2024-03-17T09:21:30;27.52;;;7.78;;
72601;SDS011;60644;55.858;37.390;2024-03-17T09:23:56;22.70;;;6.97;;
72601;SDS011;60644;55.858;37.390;2024-03-17T09:26:21;26.77;;;7.95;;
72601;SDS011;60644;55.858;37.390;2024-03-17T09:28:47;24.50;;;6.93;;
72601;SDS011;60644;55.858;37.390;2024-03-17T09:31:13;21.83;;;7.18;;
72601;SDS011;60644;55.858;37.390;2024-03-17T09:33:39;24.67;;;7.70;;
72601;SDS011;60644;55.858;37.390;2024-03-17T09:36:05;22.67;;;7.03;;
72601;SDS011;60644;55.858;37.390;2024-03-17T09:38:32;17.05;;;6.20;;
72601;SDS011;60644;55.858;37.390;2024-03-17T09:40:58;25.52;;;6.80;;
72601;SDS011;60644;55.858;37.390;2024-03-17T09:43:27;27.63;;;8.10;;
72601;SDS011;60644;55.858;37.390;2024-03-17T09:45:53;26.05;;;6.90;;
72601;SDS011;60644;55.858;37.390;2024-03-17T09:48:28;22.58;;;7.65;;
72601;SDS011;60644;55.858;37.390;2024-03-17T09:50:55;27.73;;;7.75;;
72601;SDS011;60644;55.858;37.390;2024-03-17T09:53:24;27.55;;;8.32;;
72601;SDS011;60644;55.858;37.390;2024-03-17T09:55:51;28.60;;;7.27;;
72601;SDS011;60644;55.858;37.390;2024-03-17T09:58:19;28.50;;;8.57;;
72601;SDS011;60644;55.858;37.390;2024-03-17T10:00:45;30.23;;;8.85;;
72601;SDS011;60644;55.858;37.390;2024-03-17T10:03:12;29.85;;;9.05;;
72601;SDS011;60644;55.858;37.390;2024-03-17T10:05:38;22.02;;;8.02;;
72601;SDS011;60644;55.858;37.390;2024-03-17T10:08:04;25.33;;;6.83;;
72601;SDS011;60644;55.858;37.390;2024-03-17T10:10:30;28.25;;;7.13;;
72601;SDS011;60644;55.858;37.390;2024-03-17T10:12:55;22.50;;;7.77;;
72601;SDS011;60644;55.858;37.390;2024-03-17T10:15:21;25.27;;;7.57;;
72601;SDS011;60644;55.858;37.390;2024-03-17T10:17:49;25.38;;;7.05;;
72601;SDS011;60644;55.858;37.390;2024-03-17T10:22:57;26.38;;;7.93;;
72601;SDS011;60644;55.858;37.390;2024-03-17T10:25:24;25.55;;;7.03;;
72601;SDS011;60644;55.858;37.390;2024-03-17T10:27:50;24.60;;;7.75;;
72601;SDS011;60644;55.858;37.390;2024-03-17T10:30:19;26.33;;;6.83;;
72601;SDS011;60644;55.858;37.390;2024-03-17T10:32:57;23.23;;;7.68;;
72601;SDS011;60644;55.858;37.390;2024-03-17T10:35:31;25.90;;;8.45;;
72601;SDS011;60644;55.858;37.390;2024-03-17T10:38:01;23.53;;;6.13;;
72601;SDS011;60644;55.858;37.390;2024-03-17T10:40:27;28.33;;;8.10;;
72601;SDS011;60644;55.858;37.390;2024-03-17T10:42:55;25.60;;;6.75;;
72601;SDS011;60644;55.858;37.390;2024-03-17T10:45:21;26.83;;;7.47;;
72601;SDS011;60644;55.858;37.390;2024-03-17T10:47:48;25.45;;;7.40;;
72601;SDS011;60644;55.858;37.390;2024-03-17T10:50:19;27.03;;;7.47;;
72601;SDS011;60644;55.858;37.390;2024-03-17T10:52:46;29.45;;;8.77;;
72601;SDS011;60644;55.858;37.390;2024-03-17T10:57:48;27.65;;;8.07;;
72601;SDS011;60644;55.858;37.390;2024-03-17T11:00:16;28.35;;;7.60;;
72601;SDS011;60644;55.858;37.390;2024-03-17T11:02:51;26.03;;;8.87;;
72601;SDS011;60644;55.858;37.390;2024-03-17T11:07:46;29.27;;;8.25;;
72601;SDS011;60644;55.858;37.390;2024-03-17T11:12:42;22.52;;;7.72;;
72601;SDS011;60644;55.858;37.390;2024-03-17T11:17:40;25.88;;;7.53;;
72601;SDS011;60644;55.858;37.390;2024-03-17T11:20:17;33.37;;;8.30;;
72601;SDS011;60644;55.858;37.390;2024-03-17T11:22:43;31.63;;;7.82;;
72601;SDS011;60644;55.858;37.390;2024-03-17T11:27:59;23.88;;;6.25;;
72601;SDS011;60644;55.858;37.390;2024-03-17T11:35:50;26.20;;;7.07;;
72601;SDS011;60644;55.858;37.390;2024-03-17T11:43:46;22.10;;;6.22;;
72601;SDS011;60644;55.858;37.390;2024-03-17T11:46:12;25.55;;;7.00;;
72601;SDS011;60644;55.858;37.390;2024-03-17T11:48:38;22.35;;;7.72;;
72601;SDS011;60644;55.858;37.390;2024-03-17T11:51:04;32.80;;;8.03;;
72601;SDS011;60644;55.858;37.390;2024-03-17T11:53:30;26.17;;;6.75;;
72601;SDS011;60644;55.858;37.390;2024-03-17T11:55:59;28.53;;;8.07;;
72601;SDS011;60644;55.858;37.390;2024-03-17T11:58:30;25.05;;;7.20;;
72601;SDS011;60644;55.858;37.390;2024-03-17T12:00:58;22.80;;;7.55;;
72601;SDS011;60644;55.858;37.390;2024-03-17T12:03:25;22.77;;;6.57;;
72601;SDS011;60644;55.858;37.390;2024-03-17T12:05:51;24.20;;;6.82;;
72601;SDS011;60644;55.858;37.390;2024-03-17T12:08:20;21.45;;;6.13;;
72601;SDS011;60644;55.858;37.390;2024-03-17T12:10:48;22.75;;;6.57;;
72601;SDS011;60644;55.858;37.390;2024-03-17T12:13:14;26.25;;;6.72;;
72601;SDS011;60644;55.858;37.390;2024-03-17T12:15:40;20.70;;;6.23;;
72601;SDS011;60644;55.858;37.390;2024-03-17T12:18:19;24.35;;;6.82;;
72601;SDS011;60644;55.858;37.390;2024-03-17T12:20:47;29.27;;;6.85;;
72601;SDS011;60644;55.858;37.390;2024-03-17T12:23:13;24.43;;;6.93;;
72601;SDS011;60644;55.858;37.390;2024-03-17T12:25:44;27.33;;;6.70;;
72601;SDS011;60644;55.858;37.390;2024-03-17T12:28:15;21.52;;;6.00;;
72601;SDS011;60644;55.858;37.390;2024-03-17T12:30:42;23.75;;;6.10;;
72601;SDS011;60644;55.858;37.390;2024-03-17T12:33:09;23.38;;;6.07;;
72601;SDS011;60644;55.858;37.390;2024-03-17T12:35:36;24.83;;;6.17;;
72601;SDS011;60644;55.858;37.390;2024-03-17T12:38:23;19.42;;;6.15;;
72601;SDS011;60644;55.858;37.390;2024-03-17T12:40:49;24.88;;;7.22;;
72601;SDS011;60644;55.858;37.390;2024-03-17T12:43:14;29.03;;;7.00;;
72601;SDS011;60644;55.858;37.390;2024-03-17T12:45:40;25.25;;;7.60;;
72601;SDS011;60644;55.858;37.390;2024-03-17T12:48:11;30.27;;;6.50;;
72601;SDS011;60644;55.858;37.390;2024-03-17T12:50:43;25.80;;;8.85;;
72601;SDS011;60644;55.858;37.390;2024-03-17T12:53:13;24.60;;;5.85;;
72601;SDS011;60644;55.858;37.390;2024-03-17T12:55:41;20.02;;;5.38;;
72601;SDS011;60644;55.858;37.390;2024-03-17T12:58:25;26.03;;;8.43;;
72601;SDS011;60644;55.858;37.390;2024-03-17T13:01:11;30.80;;;8.30;;
72601;SDS011;60644;55.858;37.390;2024-03-17T13:03:38;24.67;;;6.53;;
72601;SDS011;60644;55.858;37.390;2024-03-17T13:06:08;26.10;;;6.93;;
72601;SDS011;60644;55.858;37.390;2024-03-17T13:08:35;23.48;;;6.40;;
72601;SDS011;60644;55.858;37.390;2024-03-17T13:11:02;29.93;;;7.57;;
72601;SDS011;60644;55.858;37.390;2024-03-17T13:13:30;31.83;;;7.38;;
72601;SDS011;60644;55.858;37.390;2024-03-17T13:15:56;34.22;;;6.78;;
72601;SDS011;60644;55.858;37.390;2024-03-17T13:18:22;32.30;;;8.60;;
72601;SDS011;60644;55.858;37.390;2024-03-17T13:20:48;27.05;;;7.13;;
72601;SDS011;60644;55.858;37.390;2024-03-17T13:23:19;37.72;;;7.55;;
72601;SDS011;60644;55.858;37.390;2024-03-17T13:25:47;39.60;;;8.15;;
72601;SDS011;60644;55.858;37.390;2024-03-17T13:28:13;27.33;;;6.40;;
72601;SDS011;60644;55.858;37.390;2024-03-17T13:30:39;36.28;;;8.77;;
72601;SDS011;60644;55.858;37.390;2024-03-17T13:33:05;32.40;;;8.20;;
72601;SDS011;60644;55.858;37.390;2024-03-17T13:35:35;32.72;;;7.72;;
72601;SDS011;60644;55.858;37.390;2024-03-17T13:38:08;33.42;;;7.65;;
72601;SDS011;60644;55.858;37.390;2024-03-17T13:40:37;26.02;;;7.40;;
72601;SDS011;60644;55.858;37.390;2024-03-17T13:43:04;40.60;;;7.70;;
72601;SDS011;60644;55.858;37.390;2024-03-17T13:45:33;30.53;;;7.10;;
72601;SDS011;60644;55.858;37.390;2024-03-17T13:48:03;27.90;;;7.05;;
72601;SDS011;60644;55.858;37.390;2024-03-17T13:50:29;32.53;;;6.97;;
72601;SDS011;60644;55.858;37.390;2024-03-17T13:52:56;33.38;;;8.20;;
72601;SDS011;60644;55.858;37.390;2024-03-17T13:55:22;34.37;;;7.83;;
72601;SDS011;60644;55.858;37.390;2024-03-17T13:57:52;32.65;;;7.25;;
72601;SDS011;60644;55.858;37.390;2024-03-17T14:00:21;26.80;;;7.22;;
72601;SDS011;60644;55.858;37.390;2024-03-17T14:02:48;26.65;;;6.45;;
72601;SDS011;60644;55.858;37.390;2024-03-17T14:05:18;24.45;;;6.85;;
72601;SDS011;60644;55.858;37.390;2024-03-17T14:07:44;31.70;;;7.53;;
72601;SDS011;60644;55.858;37.390;2024-03-17T14:10:12;34.80;;;7.07;;
72601;SDS011;60644;55.858;37.390;2024-03-17T14:12:38;27.60;;;6.65;;
72601;SDS011;60644;55.858;37.390;2024-03-17T14:15:07;27.92;;;6.82;;
72601;SDS011;60644;55.858;37.390;2024-03-17T14:17:42;31.95;;;7.35;;
72601;SDS011;60644;55.858;37.390;2024-03-17T14:20:09;38.73;;;7.60;;
72601;SDS011;60644;55.858;37.390;2024-03-17T14:22:44;45.17;;;7.20;;
72601;SDS011;60644;55.858;37.390;2024-03-17T14:25:14;26.75;;;7.25;;
72601;SDS011;60644;55.858;37.390;2024-03-17T14:27:40;31.92;;;8.60;;
72601;SDS011;60644;55.858;37.390;2024-03-17T14:30:06;28.87;;;7.00;;
72601;SDS011;60644;55.858;37.390;2024-03-17T14:32:33;28.67;;;8.00;;
72601;SDS011;60644;55.858;37.390;2024-03-17T14:34:59;32.80;;;7.07;;
72601;SDS011;60644;55.858;37.390;2024-03-17T14:37:28;39.58;;;7.30;;
72601;SDS011;60644;55.858;37.390;2024-03-17T14:39:54;33.30;;;7.27;;
72601;SDS011;60644;55.858;37.390;2024-03-17T14:42:20;38.05;;;6.97;;
72601;SDS011;60644;55.858;37.390;2024-03-17T14:44:49;28.50;;;6.53;;
72601;SDS011;60644;55.858;37.390;2024-03-17T14:47:15;31.70;;;7.20;;